createdAt,value
2018-07-04T00:02:37.312Z,100900.00
2018-07-04T00:07:47.649Z,100901.00
2018-07-04T00:12:57.852Z,100899.00
2018-07-04T00:18:08.099Z,100896.00
2018-07-04T00:23:18.419Z,100893.00
2018-07-04T00:28:28.747Z,100887.00
2018-07-04T00:33:39.068Z,100884.00
2018-07-04T00:38:49.380Z,100882.00
2018-07-04T00:43:54.002Z,100884.00
2018-07-04T00:49:04.220Z,100881.00
2018-07-04T00:54:14.381Z,100881.00
2018-07-04T00:59:24.706Z,100884.00
2018-07-04T01:04:34.900Z,100889.00
2018-07-04T01:09:40.554Z,100885.00
2018-07-04T01:14:51.275Z,100875.00
2018-07-04T01:20:01.808Z,100871.00
2018-07-04T01:25:12.145Z,100868.00
2018-07-04T01:30:22.552Z,100863.00
2018-07-04T01:35:32.950Z,100866.00
2018-07-04T01:40:43.124Z,100866.00
2018-07-04T01:45:53.499Z,100871.00
2018-07-04T01:51:03.952Z,100864.00
2018-07-04T01:56:14.385Z,100867.00
2018-07-04T02:01:24.607Z,100865.00
2018-07-04T02:06:35.024Z,100866.00
2018-07-04T02:11:39.455Z,100870.00
2018-07-04T02:16:49.783Z,100868.00
2018-07-04T02:22:00.081Z,100862.00
2018-07-04T02:27:11.604Z,100857.00
2018-07-04T02:32:21.842Z,100854.00
2018-07-04T02:37:32.277Z,100852.00
2018-07-04T02:42:42.702Z,100855.00
2018-07-04T02:47:53.074Z,100847.00
2018-07-04T02:53:03.456Z,100844.00
2018-07-04T02:58:13.714Z,100847.00
2018-07-04T03:03:24.409Z,100847.00
2018-07-04T03:08:34.791Z,100845.00
2018-07-04T03:13:45.247Z,100847.00
2018-07-04T03:18:55.512Z,100843.00
2018-07-04T03:24:05.962Z,100851.00
2018-07-04T03:29:16.255Z,100848.00
2018-07-04T03:34:26.696Z,100847.00
2018-07-04T03:39:36.839Z,100841.00
2018-07-04T03:44:47.117Z,100848.00
2018-07-04T03:49:57.284Z,100844.00
2018-07-04T03:55:07.652Z,100842.00
2018-07-04T04:00:17.946Z,100837.00
2018-07-04T04:05:28.170Z,100846.00
2018-07-04T04:10:38.583Z,100847.00
2018-07-04T04:15:48.742Z,100852.00
2018-07-04T04:20:59.044Z,100853.00
2018-07-04T04:26:09.506Z,100855.00
2018-07-04T04:31:19.762Z,100850.00
2018-07-04T04:36:30.148Z,100851.00
2018-07-04T04:41:40.350Z,100853.00
2018-07-04T04:46:50.603Z,100857.00
2018-07-04T04:52:00.889Z,100855.00
2018-07-04T04:57:11.368Z,100844.00
2018-07-04T05:02:21.676Z,100849.00
2018-07-04T05:07:32.025Z,100845.00
2018-07-04T05:12:36.496Z,100839.00
2018-07-04T05:17:46.829Z,100845.00
2018-07-04T05:22:57.190Z,100839.00
2018-07-04T05:28:07.610Z,100834.00
2018-07-04T05:33:17.992Z,100832.00
2018-07-04T05:38:28.235Z,100825.00
2018-07-04T05:43:39.645Z,100823.00
2018-07-04T05:48:50.017Z,100819.00
2018-07-04T05:53:54.576Z,100823.00
2018-07-04T05:59:05.187Z,100831.00
2018-07-04T06:04:15.411Z,100819.00
2018-07-04T06:09:20.008Z,100815.00
2018-07-04T06:14:30.441Z,100813.00
2018-07-04T06:19:41.333Z,100808.00
2018-07-04T06:24:51.656Z,100807.00
2018-07-04T06:30:02.072Z,100808.00
2018-07-04T06:35:07.130Z,100801.00
2018-07-04T06:39:59.411Z,100802.00
2018-07-04T06:44:51.699Z,100800.00
2018-07-04T06:49:43.946Z,100806.00
2018-07-04T06:54:36.219Z,100806.00
2018-07-04T06:59:28.548Z,100810.00
2018-07-04T07:04:38.938Z,100818.00
2018-07-04T07:09:49.320Z,100820.00
2018-07-04T07:14:59.587Z,100821.00
2018-07-04T07:20:10.062Z,100820.00
2018-07-04T07:25:20.385Z,100809.00
2018-07-04T07:30:30.796Z,100803.00
2018-07-04T07:35:41.066Z,100790.00
2018-07-04T07:40:51.461Z,100783.00
2018-07-04T07:46:01.796Z,100794.00
2018-07-04T07:51:12.134Z,100787.00
2018-07-04T07:56:22.369Z,100785.00
2018-07-04T08:01:32.667Z,100789.00
2018-07-04T08:06:43.114Z,100796.00
2018-07-04T08:11:53.494Z,100804.00
2018-07-04T08:17:03.765Z,100805.00
2018-07-04T08:22:13.922Z,100801.00
2018-07-04T08:27:24.445Z,100798.00
2018-07-04T08:32:34.610Z,100797.00
2018-07-04T08:37:44.875Z,100799.00
2018-07-04T08:42:55.098Z,100808.00
2018-07-04T08:48:05.869Z,100813.00
2018-07-04T08:53:16.436Z,100825.00
2018-07-04T08:58:26.749Z,100831.00
2018-07-04T09:03:37.187Z,100827.00
2018-07-04T09:08:47.409Z,100841.00
2018-07-04T09:13:57.810Z,100847.00
2018-07-04T09:19:08.174Z,100864.00
2018-07-04T09:24:12.772Z,100876.00
2018-07-04T09:29:23.077Z,100873.00
2018-07-04T09:34:33.502Z,100876.00
2018-07-04T09:39:43.636Z,100871.00
2018-07-04T09:44:53.891Z,100869.00
2018-07-04T09:50:04.230Z,100859.00
2018-07-04T09:55:14.464Z,100859.00
2018-07-04T10:00:28.815Z,100863.00
2018-07-04T10:05:39.084Z,100862.00
2018-07-04T10:10:49.458Z,100860.00
2018-07-04T10:15:59.770Z,100855.00
2018-07-04T10:21:10.202Z,100853.00
2018-07-04T10:26:20.484Z,100856.00
2018-07-04T10:31:30.690Z,100846.00
2018-07-04T10:36:41.092Z,100840.00
2018-07-04T10:41:45.532Z,100843.00
2018-07-04T10:46:49.953Z,100837.00
2018-07-04T10:52:00.292Z,100831.00
2018-07-04T10:57:10.791Z,100827.00
2018-07-04T11:02:21.092Z,100812.00
2018-07-04T11:07:25.749Z,100800.00
2018-07-04T11:12:36.299Z,100791.00
2018-07-04T11:17:46.792Z,100789.00
2018-07-04T11:22:51.306Z,100792.00
2018-07-04T11:28:01.788Z,100799.00
2018-07-04T11:33:12.203Z,100809.00
2018-07-04T11:38:22.561Z,100817.00
2018-07-04T11:43:33.470Z,100823.00
2018-07-04T11:48:25.083Z,100819.00
2018-07-04T11:53:16.761Z,100828.00
2018-07-04T11:58:08.329Z,100827.00
2018-07-04T12:02:59.898Z,100819.00
2018-07-04T12:07:51.927Z,100823.00
2018-07-04T12:12:43.529Z,100824.00
2018-07-04T12:17:35.125Z,100824.00
2018-07-04T12:22:26.731Z,100833.00
2018-07-04T12:27:18.316Z,100844.00
2018-07-04T12:32:09.911Z,100837.00
2018-07-04T12:37:01.477Z,100840.00
2018-07-04T12:41:53.056Z,100838.00
2018-07-04T12:46:44.662Z,100833.00
2018-07-04T12:51:36.233Z,100836.00
2018-07-04T12:56:46.650Z,100830.00
2018-07-04T13:01:51.107Z,100828.00
2018-07-04T13:07:01.751Z,100817.00
2018-07-04T13:12:06.233Z,100819.00
2018-07-04T13:17:16.620Z,100839.00
2018-07-04T13:22:26.843Z,100837.00
2018-07-04T13:27:31.314Z,100835.00
2018-07-04T13:32:41.789Z,100839.00
2018-07-04T13:37:52.071Z,100845.00
2018-07-04T13:43:02.282Z,100845.00
2018-07-04T13:48:12.678Z,100848.00
2018-07-04T13:53:23.040Z,100843.00
2018-07-04T13:58:33.975Z,100833.00
2018-07-04T14:03:44.622Z,100845.00
2018-07-04T14:08:55.056Z,100844.00
2018-07-04T14:14:05.352Z,100844.00
2018-07-04T14:19:15.770Z,100841.00
2018-07-04T14:24:26.136Z,100848.00
2018-07-04T14:29:30.585Z,100837.00
2018-07-04T14:34:41.159Z,100829.00
2018-07-04T14:39:45.847Z,100817.00
2018-07-04T14:44:56.097Z,100809.00
2018-07-04T14:50:06.574Z,100811.00
2018-07-04T14:55:16.995Z,100801.00
2018-07-04T15:00:27.355Z,100786.00
2018-07-04T15:05:37.689Z,100791.00
2018-07-04T15:10:47.928Z,100782.00
2018-07-04T15:15:58.233Z,100774.00
2018-07-04T15:21:08.478Z,100770.00
2018-07-04T15:26:18.780Z,100759.00
2018-07-04T15:31:29.248Z,100754.00
2018-07-04T15:36:34.223Z,100760.00
2018-07-04T15:41:45.171Z,100764.00
2018-07-04T15:46:55.747Z,100778.00
2018-07-04T15:52:06.004Z,100778.00
2018-07-04T15:57:16.860Z,100776.00
2018-07-04T16:02:27.405Z,100774.00
2018-07-04T16:07:31.863Z,100760.00
2018-07-04T16:12:42.358Z,100760.00
2018-07-04T16:17:52.658Z,100762.00
2018-07-04T16:23:02.891Z,100755.00
2018-07-04T16:28:13.212Z,100762.00
2018-07-04T16:33:23.584Z,100764.00
2018-07-04T16:38:33.979Z,100759.00
2018-07-04T16:43:44.172Z,100759.00
2018-07-04T16:48:48.705Z,100755.00
2018-07-04T16:53:59.317Z,100745.00
2018-07-04T16:59:09.528Z,100733.00
2018-07-04T17:04:19.942Z,100722.00
2018-07-04T17:09:30.237Z,100710.00
2018-07-04T17:14:40.598Z,100704.00
2018-07-04T17:19:51.093Z,100705.00
2018-07-04T17:25:01.349Z,100692.00
2018-07-04T17:30:11.840Z,100681.00
2018-07-04T17:35:22.242Z,100682.00
2018-07-04T17:40:32.580Z,100680.00
2018-07-04T17:45:42.977Z,100684.00
2018-07-04T17:50:53.239Z,100702.00
2018-07-04T17:56:03.633Z,100697.00
2018-07-04T18:01:14.062Z,100695.00
2018-07-04T18:06:24.416Z,100699.00
2018-07-04T18:11:34.706Z,100705.00
2018-07-04T18:16:45.018Z,100704.00
2018-07-04T18:21:55.412Z,100700.00
2018-07-04T18:27:05.612Z,100700.00
2018-07-04T18:32:15.891Z,100701.00
2018-07-04T18:37:26.736Z,100711.00
2018-07-04T18:42:37.024Z,100718.00
2018-07-04T18:47:47.295Z,100719.00
2018-07-04T18:52:57.694Z,100722.00
2018-07-04T18:58:07.990Z,100711.00
2018-07-04T19:03:18.489Z,100703.00
2018-07-04T19:08:22.985Z,100712.00
2018-07-04T19:13:34.096Z,100718.00
2018-07-04T19:18:45.541Z,100726.00
2018-07-04T19:23:56.149Z,100735.00
2018-07-04T19:29:06.452Z,100746.00
2018-07-04T19:34:16.693Z,100747.00
2018-07-04T19:39:27.054Z,100740.00
2018-07-04T19:44:37.232Z,100749.00
2018-07-04T19:49:47.503Z,100752.00
2018-07-04T19:54:58.478Z,100757.00
2018-07-04T20:00:08.833Z,100750.00
2018-07-04T20:05:19.234Z,100739.00
2018-07-04T20:10:29.489Z,100729.00
2018-07-04T20:15:39.693Z,100729.00
2018-07-04T20:20:49.931Z,100718.00
2018-07-04T20:26:00.089Z,100719.00
2018-07-04T20:31:04.669Z,100697.00
2018-07-04T20:36:15.049Z,100690.00
2018-07-04T20:41:25.484Z,100679.00
2018-07-04T20:46:29.964Z,100694.00
2018-07-04T20:51:40.264Z,100700.00
2018-07-04T20:56:50.835Z,100704.00
2018-07-04T21:02:01.156Z,100706.00
2018-07-04T21:07:05.571Z,100723.00
2018-07-04T21:12:15.862Z,100738.00
2018-07-04T21:17:20.239Z,100756.00
2018-07-04T21:22:30.526Z,100739.00
2018-07-04T21:27:40.929Z,100765.00
2018-07-04T21:32:51.207Z,100774.00
2018-07-04T21:38:01.468Z,100780.00
2018-07-04T21:43:11.693Z,100781.00
2018-07-04T21:48:22.014Z,100777.00
2018-07-04T21:53:32.346Z,100780.00
2018-07-04T21:58:42.630Z,100780.00
2018-07-04T22:03:52.974Z,100781.00
2018-07-04T22:09:03.929Z,100786.00
2018-07-04T22:14:14.179Z,100793.00
2018-07-04T22:19:24.483Z,100783.00
2018-07-04T22:24:34.783Z,100769.00
2018-07-04T22:29:45.340Z,100759.00
2018-07-04T22:34:55.799Z,100761.00
2018-07-04T22:40:06.284Z,100770.00
2018-07-04T22:45:16.778Z,100763.00
2018-07-04T22:50:27.450Z,100747.00
2018-07-04T22:55:37.928Z,100743.00
2018-07-04T23:00:48.444Z,100736.00
2018-07-04T23:05:53.066Z,100733.00
2018-07-04T23:10:57.699Z,100734.00
2018-07-04T23:16:08.064Z,100743.00
2018-07-04T23:21:18.469Z,100742.00
2018-07-04T23:26:22.959Z,100744.00
2018-07-04T23:31:33.277Z,100744.00
2018-07-04T23:36:37.781Z,100739.00
2018-07-04T23:41:48.192Z,100726.00
2018-07-04T23:46:52.687Z,100738.00
2018-07-04T23:52:02.961Z,100741.00
2018-07-04T23:57:13.315Z,100749.00
